»·PEaware :: N5826T KSDM-KSNA

N5826T :: KSDM-KSNA

FLIGHT INFORMATION

Flight Status: Arrived
Operator: Privately registered:
United States
More flights under this callsign
Pilot: Daniel J. (32090)
Aircraft: Diamond DA-62
(DA62)
More flights by this aircraft type
Origin: KSDM Brown Mun
United States
Destination: KSNA John Wayne-Orange Co
United States
More flights between these airports :: More routes between these airports
Route: MZB V23 SLI
File this flight plan on PilotEdge
Remarks:
Altitude:
(Current/Filed)
6,000ft
Speed:
(Current/Filed)
140kts
Departed: 11-Jan-21 04:25 PM
Arrived: 11-Jan-21 05:04 PM
Distance/Time
Traveled:
80nm/0:39
Distance/Time
To Go:
Arrived

Flight Plot

Page will automatically refresh every two minutes.


Map Options




Map Legend


Flown Route
Filed Route
Departure Airport
Arrival Airport
Navaid (VOR, NDB)
Fix

Horizontal Profiles

Position Reports

Time Latitude Longitude Heading Altitude Ground
Speed
11-Jan-21 16:07 32.570807 -116.990418 14 523ft 0kts
11-Jan-21 16:08 32.570807 -116.990418 14 523ft 0kts
11-Jan-21 16:09 32.570807 -116.990418 14 523ft 0kts
11-Jan-21 16:10 32.570807 -116.990418 14 523ft 0kts
11-Jan-21 16:11 32.570807 -116.990418 14 523ft 0kts
11-Jan-21 16:12 32.570807 -116.990418 14 523ft 0kts
11-Jan-21 16:13 32.570807 -116.990418 14 523ft 0kts
11-Jan-21 16:14 32.570807 -116.990418 14 523ft 0kts
11-Jan-21 16:15 32.570807 -116.990418 14 523ft 0kts
11-Jan-21 16:16 32.570807 -116.990418 14 523ft 0kts
11-Jan-21 16:17 32.570807 -116.990418 14 523ft 0kts
11-Jan-21 16:18 32.571371 -116.989239 96 526ft 16kts
11-Jan-21 16:20 32.570773 -116.984275 106 524ft 14kts
11-Jan-21 16:21 32.570130 -116.978003 96 513ft 20kts
11-Jan-21 16:22 32.569529 -116.970735 95 511ft 21kts
11-Jan-21 16:23 32.570763 -116.968136 19 511ft 0kts
11-Jan-21 16:24 32.570763 -116.968136 18 511ft 0kts
11-Jan-21 16:25 32.571872 -116.970623 273 515ft 63kts
11-Jan-21 16:26 32.577760 -117.001747 291 1431ft 106kts
11-Jan-21 16:27 32.588469 -117.035582 291 2608ft 110kts
11-Jan-21 16:28 32.602749 -117.068812 325 3699ft 115kts
11-Jan-21 16:29 32.628522 -117.091595 328 4886ft 116kts
11-Jan-21 16:30 32.654936 -117.114548 328 5974ft 126kts
11-Jan-21 16:31 32.688814 -117.143939 326 6002ft 161kts
11-Jan-21 16:32 32.725717 -117.176151 326 6001ft 166kts
11-Jan-21 16:33 32.763830 -117.209394 326 5999ft 166kts
11-Jan-21 16:33 32.797566 -117.231329 342 6006ft 163kts
11-Jan-21 16:35 32.847771 -117.252722 343 5995ft 165kts
11-Jan-21 16:36 32.890825 -117.270802 343 6006ft 164kts
11-Jan-21 16:37 32.934194 -117.288978 343 6000ft 164kts
11-Jan-21 16:37 32.970018 -117.303961 343 6006ft 163kts
11-Jan-21 16:39 33.020885 -117.325282 342 5998ft 164kts
11-Jan-21 16:39 33.058964 -117.341301 343 6002ft 164kts
11-Jan-21 16:41 33.111753 -117.363442 343 5991ft 165kts
11-Jan-21 16:41 33.148362 -117.378855 342 5993ft 166kts
11-Jan-21 16:42 33.191669 -117.397066 343 6002ft 164kts
11-Jan-21 16:43 33.234685 -117.415240 338 5990ft 165kts
11-Jan-21 16:44 33.269533 -117.451722 319 6000ft 167kts
11-Jan-21 16:45 33.303134 -117.490562 318 6008ft 167kts
11-Jan-21 16:46 33.336738 -117.529661 318 5993ft 168kts
11-Jan-21 16:47 33.370130 -117.568698 318 5998ft 168kts
11-Jan-21 16:48 33.403937 -117.608136 317 6029ft 167kts
11-Jan-21 16:49 33.438496 -117.648708 318 5998ft 172kts
11-Jan-21 16:50 33.471580 -117.687391 318 5991ft 161kts
11-Jan-21 16:51 33.503495 -117.724708 319 6002ft 159kts
11-Jan-21 16:52 33.535200 -117.762016 318 5999ft 154kts
11-Jan-21 16:53 33.566040 -117.798275 318 6026ft 147kts
11-Jan-21 16:54 33.595686 -117.833089 318 5995ft 148kts
11-Jan-21 16:55 33.625059 -117.867842 317 6031ft 147kts
11-Jan-21 16:56 33.654663 -117.902644 317 5808ft 153kts
11-Jan-21 16:57 33.689083 -117.932107 12 4810ft 159kts
11-Jan-21 16:58 33.723040 -117.906950 45 4108ft 103kts
11-Jan-21 16:59 33.740785 -117.879373 63 3615ft 110kts
11-Jan-21 17:00 33.739057 -117.842477 123 2714ft 123kts
11-Jan-21 17:01 33.708170 -117.848046 210 1121ft 120kts
11-Jan-21 17:02 33.682157 -117.864729 207 96ft 88kts
11-Jan-21 17:03 33.674260 -117.870874 288 60ft 0kts
11-Jan-21 17:04 33.674051 -117.872166 151 60ft 10kts
11-Jan-21 17:05 33.673979 -117.872082 118 60ft 0kts

Navigation Log

Ident Type
Flight plan parsing failed, navigation log unavailable